sensor_id;sensor_type;location;lat;lon;timestamp;pressure;altitude;pressure_sealevel;temperature
40624;BMP280;26325;48.594;11.650;2023-05-10T00:00:22;95955.97;;;15.77
40624;BMP280;26325;48.594;11.650;2023-05-10T00:02:52;95953.59;;;15.94
40624;BMP280;26325;48.594;11.650;2023-05-10T00:05:18;95951.53;;;15.78
40624;BMP280;26325;48.594;11.650;2023-05-10T00:07:43;95952.88;;;15.75
40624;BMP280;26325;48.594;11.650;2023-05-10T00:10:11;95956.06;;;15.72
40624;BMP280;26325;48.594;11.650;2023-05-10T00:12:37;95962.78;;;15.60
40624;BMP280;26325;48.594;11.650;2023-05-10T00:15:03;95954.13;;;15.64
40624;BMP280;26325;48.594;11.650;2023-05-10T00:17:31;95954.44;;;15.45
40624;BMP280;26325;48.594;11.650;2023-05-10T00:19:57;95962.88;;;15.37
40624;BMP280;26325;48.594;11.650;2023-05-10T00:22:22;95959.09;;;15.30
40624;BMP280;26325;48.594;11.650;2023-05-10T00:24:48;95955.72;;;15.29
40624;BMP280;26325;48.594;11.650;2023-05-10T00:27:13;95956.16;;;15.18
40624;BMP280;26325;48.594;11.650;2023-05-10T00:29:39;95950.44;;;15.16
40624;BMP280;26325;48.594;11.650;2023-05-10T00:32:04;95954.31;;;15.19
40624;BMP280;26325;48.594;11.650;2023-05-10T00:34:30;95959.59;;;15.14
40624;BMP280;26325;48.594;11.650;2023-05-10T00:36:55;95950.03;;;15.09
40624;BMP280;26325;48.594;11.650;2023-05-10T00:39:23;95954.59;;;14.99
40624;BMP280;26325;48.594;11.650;2023-05-10T00:41:52;95953.53;;;15.00
40624;BMP280;26325;48.594;11.650;2023-05-10T00:44:17;95950.28;;;14.90
40624;BMP280;26325;48.594;11.650;2023-05-10T00:46:44;95947.53;;;14.82
40624;BMP280;26325;48.594;11.650;2023-05-10T00:49:10;95943.25;;;14.90
40624;BMP280;26325;48.594;11.650;2023-05-10T00:51:35;95944.19;;;14.99
40624;BMP280;26325;48.594;11.650;2023-05-10T00:54:02;95941.91;;;14.93
40624;BMP280;26325;48.594;11.650;2023-05-10T00:56:27;95944.59;;;14.88
40624;BMP280;26325;48.594;11.650;2023-05-10T00:58:55;95939.63;;;15.09
40624;BMP280;26325;48.594;11.650;2023-05-10T01:01:21;95940.41;;;15.10
40624;BMP280;26325;48.594;11.650;2023-05-10T01:03:46;95935.91;;;14.97
40624;BMP280;26325;48.594;11.650;2023-05-10T01:06:13;95929.88;;;15.02
40624;BMP280;26325;48.594;11.650;2023-05-10T01:08:40;95935.91;;;14.97
40624;BMP280;26325;48.594;11.650;2023-05-10T01:11:06;95937.94;;;15.00
40624;BMP280;26325;48.594;11.650;2023-05-10T01:13:36;95930.31;;;14.86
40624;BMP280;26325;48.594;11.650;2023-05-10T01:16:04;95936.47;;;14.94
40624;BMP280;26325;48.594;11.650;2023-05-10T01:18:40;95944.09;;;14.86
40624;BMP280;26325;48.594;11.650;2023-05-10T01:35:10;95928.16;;;14.92
40624;BMP280;26325;48.594;11.650;2023-05-10T01:37:55;95924.44;;;14.98
40624;BMP280;26325;48.594;11.650;2023-05-10T01:41:47;95932.28;;;14.93
40624;BMP280;26325;48.594;11.650;2023-05-10T01:44:31;95935.34;;;15.00
40624;BMP280;26325;48.594;11.650;2023-05-10T01:47:11;95932.75;;;15.00
40624;BMP280;26325;48.594;11.650;2023-05-10T01:49:51;95938.44;;;15.02
40624;BMP280;26325;48.594;11.650;2023-05-10T01:52:24;95932.47;;;15.02
40624;BMP280;26325;48.594;11.650;2023-05-10T01:55:01;95934.78;;;15.03
40624;BMP280;26325;48.594;11.650;2023-05-10T01:57:33;95933.25;;;15.02
40624;BMP280;26325;48.594;11.650;2023-05-10T01:59:59;95934.66;;;14.95
40624;BMP280;26325;48.594;11.650;2023-05-10T02:02:28;95936.47;;;14.94
40624;BMP280;26325;48.594;11.650;2023-05-10T02:04:54;95929.63;;;15.16
40624;BMP280;26325;48.594;11.650;2023-05-10T02:07:21;95947.72;;;15.08
40624;BMP280;26325;48.594;11.650;2023-05-10T02:09:47;95941.53;;;15.04
40624;BMP280;26325;48.594;11.650;2023-05-10T02:12:13;95941.59;;;14.99
40624;BMP280;26325;48.594;11.650;2023-05-10T02:14:40;95938.50;;;15.15
40624;BMP280;26325;48.594;11.650;2023-05-10T02:17:08;95942.72;;;15.11
40624;BMP280;26325;48.594;11.650;2023-05-10T02:19:36;95945.88;;;15.08
40624;BMP280;26325;48.594;11.650;2023-05-10T02:22:03;95949.94;;;15.14
40624;BMP280;26325;48.594;11.650;2023-05-10T02:24:31;95946.75;;;15.04
40624;BMP280;26325;48.594;11.650;2023-05-10T02:27:00;95932.47;;;15.02
40624;BMP280;26325;48.594;11.650;2023-05-10T02:29:31;95939.84;;;15.13
40624;BMP280;26325;48.594;11.650;2023-05-10T02:31:58;95943.50;;;15.12
40624;BMP280;26325;48.594;11.650;2023-05-10T02:34:27;95940.41;;;15.10
40624;BMP280;26325;48.594;11.650;2023-05-10T02:36:53;95932.19;;;15.03
40624;BMP280;26325;48.594;11.650;2023-05-10T02:39:23;95937.31;;;15.08
40624;BMP280;26325;48.594;11.650;2023-05-10T02:41:51;95937.78;;;14.92
40624;BMP280;26325;48.594;11.650;2023-05-10T02:44:19;95940.91;;;14.94
40624;BMP280;26325;48.594;11.650;2023-05-10T02:46:45;95935.34;;;15.00
40624;BMP280;26325;48.594;11.650;2023-05-10T02:49:15;95938.03;;;14.95
40624;BMP280;26325;48.594;11.650;2023-05-10T02:51:44;95935.25;;;14.87
40624;BMP280;26325;48.594;11.650;2023-05-10T02:54:24;95940.53;;;15.00
40624;BMP280;26325;48.594;11.650;2023-05-10T02:56:57;95935.56;;;14.81
40624;BMP280;26325;48.594;11.650;2023-05-10T02:59:23;95935.25;;;14.87
40624;BMP280;26325;48.594;11.650;2023-05-10T03:01:51;95935.81;;;14.84
40624;BMP280;26325;48.594;11.650;2023-05-10T03:04:16;95936.34;;;14.81
40624;BMP280;26325;48.594;11.650;2023-05-10T03:06:42;95942.28;;;14.86
40624;BMP280;26325;48.594;11.650;2023-05-10T03:09:08;95939.72;;;14.82
40624;BMP280;26325;48.594;11.650;2023-05-10T03:14:43;95944.78;;;14.91
40624;BMP280;26325;48.594;11.650;2023-05-10T03:20:06;95954.78;;;14.85
40624;BMP280;26325;48.594;11.650;2023-05-10T03:22:45;95940.44;;;14.69
40624;BMP280;26325;48.594;11.650;2023-05-10T03:25:12;95950.75;;;14.74
40624;BMP280;26325;48.594;11.650;2023-05-10T03:27:43;95947.22;;;14.65
40624;BMP280;26325;48.594;11.650;2023-05-10T03:30:11;95949.28;;;14.68
40624;BMP280;26325;48.594;11.650;2023-05-10T03:32:38;95947.56;;;14.59
40624;BMP280;26325;48.594;11.650;2023-05-10T03:35:11;95944.28;;;14.71
40624;BMP280;26325;48.594;11.650;2023-05-10T03:37:39;95942.81;;;14.84
40624;BMP280;26325;48.594;11.650;2023-05-10T03:40:05;95957.50;;;14.75
40624;BMP280;26325;48.594;11.650;2023-05-10T03:42:31;95944.44;;;14.80
40624;BMP280;26325;48.594;11.650;2023-05-10T03:44:57;95950.19;;;14.77
40624;BMP280;26325;48.594;11.650;2023-05-10T03:47:22;95951.03;;;14.90
40624;BMP280;26325;48.594;11.650;2023-05-10T03:49:48;95946.97;;;14.85
40624;BMP280;26325;48.594;11.650;2023-05-10T03:52:13;95954.91;;;14.75
40624;BMP280;26325;48.594;11.650;2023-05-10T03:54:39;95947.75;;;14.85
40624;BMP280;26325;48.594;11.650;2023-05-10T03:57:07;95955.09;;;14.60
40624;BMP280;26325;48.594;11.650;2023-05-10T03:59:33;95950.31;;;14.67
40624;BMP280;26325;48.594;11.650;2023-05-10T04:01:58;95959.56;;;14.78
40624;BMP280;26325;48.594;11.650;2023-05-10T04:04:24;95956.38;;;14.81
40624;BMP280;26325;48.594;11.650;2023-05-10T04:06:49;95948.78;;;14.66
40624;BMP280;26325;48.594;11.650;2023-05-10T04:09:15;95950.25;;;14.72
40624;BMP280;26325;48.594;11.650;2023-05-10T04:11:43;95954.53;;;14.63
40624;BMP280;26325;48.594;11.650;2023-05-10T04:14:11;95951.91;;;14.63
40624;BMP280;26325;48.594;11.650;2023-05-10T04:16:36;95958.47;;;14.61
40624;BMP280;26325;48.594;11.650;2023-05-10T04:19:04;95957.13;;;14.63
40624;BMP280;26325;48.594;11.650;2023-05-10T04:21:29;95960.34;;;14.55
40624;BMP280;26325;48.594;11.650;2023-05-10T04:23:55;95962.94;;;14.55
40624;BMP280;26325;48.594;11.650;2023-05-10T04:26:23;95958.19;;;14.62
40624;BMP280;26325;48.594;11.650;2023-05-10T04:28:50;95957.63;;;14.65
40624;BMP280;26325;48.594;11.650;2023-05-10T04:31:17;95962.94;;;14.55
40624;BMP280;26325;48.594;11.650;2023-05-10T04:33:43;95958.09;;;14.49
40624;BMP280;26325;48.594;11.650;2023-05-10T04:36:09;95970.25;;;14.53
40624;BMP280;26325;48.594;11.650;2023-05-10T04:38:34;95970.44;;;14.57
40624;BMP280;26325;48.594;11.650;2023-05-10T04:41:07;95969.25;;;14.49
40624;BMP280;26325;48.594;11.650;2023-05-10T04:43:36;95971.78;;;14.54
40624;BMP280;26325;48.594;11.650;2023-05-10T04:46:03;95981.72;;;14.48
40624;BMP280;26325;48.594;11.650;2023-05-10T04:48:28;95975.22;;;14.50
40624;BMP280;26325;48.594;11.650;2023-05-10T04:50:54;95983.94;;;14.59
40624;BMP280;26325;48.594;11.650;2023-05-10T04:53:20;95989.91;;;14.59
40624;BMP280;26325;48.594;11.650;2023-05-10T04:55:45;95995.22;;;14.49
40624;BMP280;26325;48.594;11.650;2023-05-10T04:58:12;95999.28;;;14.60
40624;BMP280;26325;48.594;11.650;2023-05-10T05:00:37;96000.31;;;14.59
40624;BMP280;26325;48.594;11.650;2023-05-10T05:03:03;96005.94;;;14.66
40624;BMP280;26325;48.594;11.650;2023-05-10T05:05:28;96006.81;;;14.80
40624;BMP280;26325;48.594;11.650;2023-05-10T05:08:03;96015.09;;;14.82
40624;BMP280;26325;48.594;11.650;2023-05-10T05:10:28;96014.69;;;14.75
40624;BMP280;26325;48.594;11.650;2023-05-10T05:12:54;96014.13;;;14.78
40624;BMP280;26325;48.594;11.650;2023-05-10T05:15:19;96016.78;;;14.73
40624;BMP280;26325;48.594;11.650;2023-05-10T05:17:47;96007.41;;;14.72
40624;BMP280;26325;48.594;11.650;2023-05-10T05:20:17;96026.06;;;14.79
40624;BMP280;26325;48.594;11.650;2023-05-10T05:22:44;96030.28;;;14.75
40624;BMP280;26325;48.594;11.650;2023-05-10T05:25:09;96037.03;;;14.76
40624;BMP280;26325;48.594;11.650;2023-05-10T05:27:38;96036.78;;;14.72
40624;BMP280;26325;48.594;11.650;2023-05-10T05:30:04;96032.38;;;14.73
40624;BMP280;26325;48.594;11.650;2023-05-10T05:32:30;96041.28;;;14.67
40624;BMP280;26325;48.594;11.650;2023-05-10T05:34:58;96046.25;;;14.64
40624;BMP280;26325;48.594;11.650;2023-05-10T05:37:23;96053.25;;;14.63
40624;BMP280;26325;48.594;11.650;2023-05-10T05:39:54;96049.28;;;14.48
40624;BMP280;26325;48.594;11.650;2023-05-10T05:42:20;96054.97;;;14.72
40624;BMP280;26325;48.594;11.650;2023-05-10T05:44:47;96054.59;;;14.61
40624;BMP280;26325;48.594;11.650;2023-05-10T05:47:13;96054.19;;;14.72
40624;BMP280;26325;48.594;11.650;2023-05-10T05:49:39;96055.72;;;14.78
40624;BMP280;26325;48.594;11.650;2023-05-10T05:52:04;96056.00;;;14.99
40624;BMP280;26325;48.594;11.650;2023-05-10T05:54:30;96062.03;;;14.95
40624;BMP280;26325;48.594;11.650;2023-05-10T05:56:58;96071.75;;;15.07
40624;BMP280;26325;48.594;11.650;2023-05-10T05:59:24;96069.88;;;15.13
40624;BMP280;26325;48.594;11.650;2023-05-10T06:01:50;96077.25;;;15.24
40624;BMP280;26325;48.594;11.650;2023-05-10T06:04:16;96076.47;;;15.24
40624;BMP280;26325;48.594;11.650;2023-05-10T06:06:41;96090.69;;;15.13
40624;BMP280;26325;48.594;11.650;2023-05-10T06:09:07;96088.91;;;15.08
40624;BMP280;26325;48.594;11.650;2023-05-10T06:11:34;96088.97;;;15.04
40624;BMP280;26325;48.594;11.650;2023-05-10T06:13:59;96096.63;;;14.90
40624;BMP280;26325;48.594;11.650;2023-05-10T06:16:25;96100.25;;;14.94
40624;BMP280;26325;48.594;11.650;2023-05-10T06:18:51;96105.47;;;14.89
40624;BMP280;26325;48.594;11.650;2023-05-10T06:21:17;96100.16;;;15.04
40624;BMP280;26325;48.594;11.650;2023-05-10T06:23:45;96107.72;;;15.01
40624;BMP280;26325;48.594;11.650;2023-05-10T06:26:10;96114.34;;;15.11
40624;BMP280;26325;48.594;11.650;2023-05-10T06:28:36;96121.50;;;15.01
40624;BMP280;26325;48.594;11.650;2023-05-10T06:31:06;96118.44;;;15.17
40624;BMP280;26325;48.594;11.650;2023-05-10T06:33:33;96124.00;;;15.11
40624;BMP280;26325;48.594;11.650;2023-05-10T06:36:00;96124.84;;;15.24
40624;BMP280;26325;48.594;11.650;2023-05-10T06:38:26;96130.06;;;15.24
40624;BMP280;26325;48.594;11.650;2023-05-10T06:40:51;96133.38;;;15.30
40624;BMP280;26325;48.594;11.650;2023-05-10T06:43:19;96129.38;;;15.37
40624;BMP280;26325;48.594;11.650;2023-05-10T06:45:45;96134.00;;;15.40
40624;BMP280;26325;48.594;11.650;2023-05-10T06:48:10;96137.88;;;15.43
40624;BMP280;26325;48.594;11.650;2023-05-10T06:50:36;96129.56;;;15.63
40624;BMP280;26325;48.594;11.650;2023-05-10T06:53:01;96144.88;;;15.83
40624;BMP280;26325;48.594;11.650;2023-05-10T06:55:27;96146.44;;;15.84
40624;BMP280;26325;48.594;11.650;2023-05-10T06:57:54;96145.94;;;16.18
40624;BMP280;26325;48.594;11.650;2023-05-10T07:00:20;96152.38;;;16.25
40624;BMP280;26325;48.594;11.650;2023-05-10T07:02:46;96141.16;;;16.56
40624;BMP280;26325;48.594;11.650;2023-05-10T07:05:13;96143.16;;;16.77
40624;BMP280;26325;48.594;11.650;2023-05-10T07:07:39;96145.69;;;16.95
40624;BMP280;26325;48.594;11.650;2023-05-10T07:10:05;96147.34;;;17.04
40624;BMP280;26325;48.594;11.650;2023-05-10T07:12:31;96151.31;;;17.02
40624;BMP280;26325;48.594;11.650;2023-05-10T07:15:01;96160.00;;;17.11
40624;BMP280;26325;48.594;11.650;2023-05-10T07:17:27;96160.13;;;16.88
40624;BMP280;26325;48.594;11.650;2023-05-10T07:19:52;96159.41;;;17.14
40624;BMP280;26325;48.594;11.650;2023-05-10T07:22:18;96165.81;;;17.34
40624;BMP280;26325;48.594;11.650;2023-05-10T07:24:43;96169.47;;;17.33
40624;BMP280;26325;48.594;11.650;2023-05-10T07:27:09;96167.63;;;17.47
40624;BMP280;26325;48.594;11.650;2023-05-10T07:29:35;96165.63;;;17.17
40624;BMP280;26325;48.594;11.650;2023-05-10T07:32:01;96166.84;;;17.59
40624;BMP280;26325;48.594;11.650;2023-05-10T07:34:28;96169.56;;;17.41
40624;BMP280;26325;48.594;11.650;2023-05-10T07:37:00;96160.78;;;17.51
40624;BMP280;26325;48.594;11.650;2023-05-10T07:39:28;96168.63;;;17.37
40624;BMP280;26325;48.594;11.650;2023-05-10T07:41:56;96170.66;;;17.27
40624;BMP280;26325;48.594;11.650;2023-05-10T07:44:22;96168.50;;;17.29
40624;BMP280;26325;48.594;11.650;2023-05-10T07:46:50;96170.16;;;17.38
40624;BMP280;26325;48.594;11.650;2023-05-10T07:49:16;96168.38;;;17.73
40624;BMP280;26325;48.594;11.650;2023-05-10T07:51:42;96167.03;;;17.76
40624;BMP280;26325;48.594;11.650;2023-05-10T07:54:07;96175.81;;;17.93
40624;BMP280;26325;48.594;11.650;2023-05-10T07:56:33;96185.06;;;18.12
40624;BMP280;26325;48.594;11.650;2023-05-10T07:58:59;96170.16;;;18.34
40624;BMP280;26325;48.594;11.650;2023-05-10T08:01:30;96177.72;;;18.57
40624;BMP280;26325;48.594;11.650;2023-05-10T08:03:57;96170.81;;;18.61
40624;BMP280;26325;48.594;11.650;2023-05-10T08:06:23;96171.94;;;18.68
40624;BMP280;26325;48.594;11.650;2023-05-10T08:08:49;96176.31;;;18.16
40624;BMP280;26325;48.594;11.650;2023-05-10T08:11:20;96167.50;;;18.47
40624;BMP280;26325;48.594;11.650;2023-05-10T08:13:48;96174.97;;;18.75
40624;BMP280;26325;48.594;11.650;2023-05-10T08:16:14;96182.38;;;18.81
40624;BMP280;26325;48.594;11.650;2023-05-10T08:18:39;96178.97;;;19.10
40624;BMP280;26325;48.594;11.650;2023-05-10T08:21:05;96168.50;;;20.03
40624;BMP280;26325;48.594;11.650;2023-05-10T08:23:31;96166.34;;;19.42
40624;BMP280;26325;48.594;11.650;2023-05-10T08:25:59;96169.13;;;19.54
40624;BMP280;26325;48.594;11.650;2023-05-10T08:28:25;96169.66;;;19.26
40624;BMP280;26325;48.594;11.650;2023-05-10T08:30:53;96176.59;;;18.71
40624;BMP280;26325;48.594;11.650;2023-05-10T08:33:18;96170.69;;;18.87
40624;BMP280;26325;48.594;11.650;2023-05-10T08:35:44;96171.63;;;18.83
40624;BMP280;26325;48.594;11.650;2023-05-10T08:38:13;96180.03;;;18.58
40624;BMP280;26325;48.594;11.650;2023-05-10T08:40:43;96176.53;;;18.41
40624;BMP280;26325;48.594;11.650;2023-05-10T08:43:12;96182.66;;;18.37
40624;BMP280;26325;48.594;11.650;2023-05-10T08:45:43;96189.22;;;18.13
40624;BMP280;26325;48.594;11.650;2023-05-10T08:48:10;96194.25;;;18.10
40624;BMP280;26325;48.594;11.650;2023-05-10T08:50:38;96188.41;;;17.91
40624;BMP280;26325;48.594;11.650;2023-05-10T08:53:15;96193.00;;;18.07
40624;BMP280;26325;48.594;11.650;2023-05-10T08:55:41;96187.91;;;18.24
40624;BMP280;26325;48.594;11.650;2023-05-10T08:58:09;96189.31;;;18.08
40624;BMP280;26325;48.594;11.650;2023-05-10T09:00:36;96190.22;;;18.25
40624;BMP280;26325;48.594;11.650;2023-05-10T09:03:04;96190.31;;;17.99
40624;BMP280;26325;48.594;11.650;2023-05-10T09:05:30;96198.63;;;18.14
40624;BMP280;26325;48.594;11.650;2023-05-10T09:07:55;96197.78;;;18.05
40624;BMP280;26325;48.594;11.650;2023-05-10T09:10:21;96199.38;;;18.14
40624;BMP280;26325;48.594;11.650;2023-05-10T09:12:48;96203.34;;;18.12
40624;BMP280;26325;48.594;11.650;2023-05-10T09:15:17;96204.25;;;17.94
40624;BMP280;26325;48.594;11.650;2023-05-10T09:17:45;96207.19;;;17.54
40624;BMP280;26325;48.594;11.650;2023-05-10T09:20:11;96215.50;;;17.42
40624;BMP280;26325;48.594;11.650;2023-05-10T09:22:36;96209.66;;;17.06
40624;BMP280;26325;48.594;11.650;2023-05-10T09:25:07;96216.16;;;17.21
40624;BMP280;26325;48.594;11.650;2023-05-10T09:27:34;96208.91;;;17.32
40624;BMP280;26325;48.594;11.650;2023-05-10T09:30:00;96216.47;;;17.33
40624;BMP280;26325;48.594;11.650;2023-05-10T09:32:42;96220.78;;;17.24
40624;BMP280;26325;48.594;11.650;2023-05-10T09:35:13;96220.53;;;17.52
40624;BMP280;26325;48.594;11.650;2023-05-10T09:37:41;96215.22;;;17.44
40624;BMP280;26325;48.594;11.650;2023-05-10T09:40:11;96208.41;;;17.82
40624;BMP280;26325;48.594;11.650;2023-05-10T09:42:42;96219.66;;;17.70
40624;BMP280;26325;48.594;11.650;2023-05-10T09:45:08;96205.91;;;17.91
40624;BMP280;26325;48.594;11.650;2023-05-10T09:47:35;96216.28;;;18.30
40624;BMP280;26325;48.594;11.650;2023-05-10T09:50:03;96208.50;;;18.60
40624;BMP280;26325;48.594;11.650;2023-05-10T09:52:54;96208.38;;;19.45
40624;BMP280;26325;48.594;11.650;2023-05-10T09:55:22;96196.72;;;20.22
40624;BMP280;26325;48.594;11.650;2023-05-10T09:57:50;96194.44;;;20.62
40624;BMP280;26325;48.594;11.650;2023-05-10T10:00:26;96191.69;;;19.71
40624;BMP280;26325;48.594;11.650;2023-05-10T10:02:57;96203.59;;;18.80
40624;BMP280;26325;48.594;11.650;2023-05-10T10:05:35;96197.88;;;18.56
40624;BMP280;26325;48.594;11.650;2023-05-10T10:08:04;96200.88;;;18.71
40624;BMP280;26325;48.594;11.650;2023-05-10T10:10:32;96192.34;;;18.79
40624;BMP280;26325;48.594;11.650;2023-05-10T10:12:58;96194.97;;;18.58
40624;BMP280;26325;48.594;11.650;2023-05-10T10:15:25;96198.50;;;19.05
40624;BMP280;26325;48.594;11.650;2023-05-10T10:17:52;96195.19;;;19.21
40624;BMP280;26325;48.594;11.650;2023-05-10T10:22:44;96194.03;;;19.73
40624;BMP280;26325;48.594;11.650;2023-05-10T10:25:13;96184.75;;;20.38
40624;BMP280;26325;48.594;11.650;2023-05-10T10:30:31;96183.38;;;22.52
40624;BMP280;26325;48.594;11.650;2023-05-10T10:33:39;96176.56;;;23.69
40624;BMP280;26325;48.594;11.650;2023-05-10T10:36:07;96182.94;;;25.07
40624;BMP280;26325;48.594;11.650;2023-05-10T10:41:34;96171.63;;;26.64
40624;BMP280;26325;48.594;11.650;2023-05-10T10:44:36;96180.38;;;26.16
40624;BMP280;26325;48.594;11.650;2023-05-10T10:52:38;96181.47;;;23.94
40624;BMP280;26325;48.594;11.650;2023-05-10T10:57:56;96175.94;;;23.05
40624;BMP280;26325;48.594;11.650;2023-05-10T11:00:36;96175.38;;;23.11
40624;BMP280;26325;48.594;11.650;2023-05-10T11:05:39;96170.94;;;22.40
40624;BMP280;26325;48.594;11.650;2023-05-10T11:11:03;96170.81;;;21.60
40624;BMP280;26325;48.594;11.650;2023-05-10T11:15:58;96168.06;;;20.51
40624;BMP280;26325;48.594;11.650;2023-05-10T11:18:30;96165.09;;;19.78
40624;BMP280;26325;48.594;11.650;2023-05-10T11:21:01;96164.34;;;20.02
40624;BMP280;26325;48.594;11.650;2023-05-10T11:26:11;96168.22;;;20.13
40624;BMP280;26325;48.594;11.650;2023-05-10T11:28:44;96162.31;;;20.32
40624;BMP280;26325;48.594;11.650;2023-05-10T11:31:10;96156.47;;;20.60
40624;BMP280;26325;48.594;11.650;2023-05-10T11:33:55;96159.13;;;20.43
40624;BMP280;26325;48.594;11.650;2023-05-10T11:36:27;96163.56;;;20.26
40624;BMP280;26325;48.594;11.650;2023-05-10T11:38:54;96166.97;;;20.19
40624;BMP280;26325;48.594;11.650;2023-05-10T11:41:21;96163.06;;;19.75
40624;BMP280;26325;48.594;11.650;2023-05-10T11:43:54;96172.66;;;19.49
40624;BMP280;26325;48.594;11.650;2023-05-10T11:46:22;96168.31;;;19.37
40624;BMP280;26325;48.594;11.650;2023-05-10T11:48:55;96162.31;;;19.45
40624;BMP280;26325;48.594;11.650;2023-05-10T11:51:25;96158.78;;;19.41
40624;BMP280;26325;48.594;11.650;2023-05-10T11:53:54;96163.97;;;19.24
40624;BMP280;26325;48.594;11.650;2023-05-10T11:56:19;96164.66;;;19.08
40624;BMP280;26325;48.594;11.650;2023-05-10T11:58:56;96172.06;;;19.14
40624;BMP280;26325;48.594;11.650;2023-05-10T12:01:24;96165.50;;;19.25
40624;BMP280;26325;48.594;11.650;2023-05-10T12:03:53;96160.81;;;19.52
40624;BMP280;26325;48.594;11.650;2023-05-10T12:06:21;96166.38;;;19.50
40624;BMP280;26325;48.594;11.650;2023-05-10T12:08:48;96165.50;;;19.71
40624;BMP280;26325;48.594;11.650;2023-05-10T12:11:17;96175.78;;;19.51
40624;BMP280;26325;48.594;11.650;2023-05-10T12:13:44;96183.03;;;19.16
40624;BMP280;26325;48.594;11.650;2023-05-10T12:18:44;96187.34;;;18.91
40624;BMP280;26325;48.594;11.650;2023-05-10T12:21:13;96188.78;;;18.75
40624;BMP280;26325;48.594;11.650;2023-05-10T12:23:39;96186.63;;;18.56
40624;BMP280;26325;48.594;11.650;2023-05-10T12:26:09;96183.47;;;18.67
40624;BMP280;26325;48.594;11.650;2023-05-10T12:28:37;96198.47;;;18.53
40624;BMP280;26325;48.594;11.650;2023-05-10T12:31:03;96193.63;;;18.68
40624;BMP280;26325;48.594;11.650;2023-05-10T12:33:41;96192.44;;;18.96
40624;BMP280;26325;48.594;11.650;2023-05-10T12:36:14;96194.59;;;18.94
40624;BMP280;26325;48.594;11.650;2023-05-10T12:38:45;96202.03;;;18.79
40624;BMP280;26325;48.594;11.650;2023-05-10T12:41:16;96201.59;;;18.42
40624;BMP280;26325;48.594;11.650;2023-05-10T12:43:43;96211.69;;;18.35
40624;BMP280;26325;48.594;11.650;2023-05-10T12:46:14;96210.13;;;18.48
40624;BMP280;26325;48.594;11.650;2023-05-10T12:48:41;96216.91;;;18.35
40624;BMP280;26325;48.594;11.650;2023-05-10T12:51:08;96209.16;;;18.44
40624;BMP280;26325;48.594;11.650;2023-05-10T12:53:35;96214.78;;;18.37
40624;BMP280;26325;48.594;11.650;2023-05-10T12:56:04;96209.44;;;18.21
40624;BMP280;26325;48.594;11.650;2023-05-10T12:58:30;96215.19;;;17.70
40624;BMP280;26325;48.594;11.650;2023-05-10T13:00:57;96217.22;;;17.73
40624;BMP280;26325;48.594;11.650;2023-05-10T13:03:22;96215.66;;;17.72
40624;BMP280;26325;48.594;11.650;2023-05-10T13:05:49;96213.56;;;17.61
40624;BMP280;26325;48.594;11.650;2023-05-10T13:08:14;96214.22;;;17.66
40624;BMP280;26325;48.594;11.650;2023-05-10T13:10:40;96214.50;;;17.78
40624;BMP280;26325;48.594;11.650;2023-05-10T13:13:06;96206.41;;;17.79
40624;BMP280;26325;48.594;11.650;2023-05-10T13:15:32;96206.19;;;18.02
40624;BMP280;26325;48.594;11.650;2023-05-10T13:18:01;96211.69;;;18.35
40624;BMP280;26325;48.594;11.650;2023-05-10T13:20:26;96207.66;;;18.30
40624;BMP280;26325;48.594;11.650;2023-05-10T13:22:52;96206.47;;;18.35
40624;BMP280;26325;48.594;11.650;2023-05-10T13:25:21;96203.69;;;18.53
40624;BMP280;26325;48.594;11.650;2023-05-10T13:27:47;96206.72;;;18.68
40624;BMP280;26325;48.594;11.650;2023-05-10T13:30:16;96206.34;;;18.62
40624;BMP280;26325;48.594;11.650;2023-05-10T13:32:49;96206.94;;;18.37
40624;BMP280;26325;48.594;11.650;2023-05-10T13:35:14;96211.22;;;18.33
40624;BMP280;26325;48.594;11.650;2023-05-10T13:37:42;96202.88;;;18.66
40624;BMP280;26325;48.594;11.650;2023-05-10T13:40:08;96207.97;;;18.71
40624;BMP280;26325;48.594;11.650;2023-05-10T13:42:33;96210.41;;;18.46
40624;BMP280;26325;48.594;11.650;2023-05-10T13:45:00;96197.78;;;18.69
40624;BMP280;26325;48.594;11.650;2023-05-10T13:47:27;96202.75;;;18.92
40624;BMP280;26325;48.594;11.650;2023-05-10T13:49:53;96203.94;;;18.87
40624;BMP280;26325;48.594;11.650;2023-05-10T13:52:21;96195.94;;;18.83
40624;BMP280;26325;48.594;11.650;2023-05-10T13:54:46;96194.06;;;18.62
40624;BMP280;26325;48.594;11.650;2023-05-10T13:57:12;96196.00;;;18.35
40624;BMP280;26325;48.594;11.650;2023-05-10T13:59:41;96200.16;;;18.15
40624;BMP280;26325;48.594;11.650;2023-05-10T14:02:08;96205.38;;;18.15
40624;BMP280;26325;48.594;11.650;2023-05-10T14:04:39;96201.94;;;17.80
40624;BMP280;26325;48.594;11.650;2023-05-10T14:07:07;96207.94;;;17.41
40624;BMP280;26325;48.594;11.650;2023-05-10T14:09:32;96204.53;;;17.14
40624;BMP280;26325;48.594;11.650;2023-05-10T14:11:58;96216.34;;;17.12
40624;BMP280;26325;48.594;11.650;2023-05-10T14:14:25;96212.75;;;16.95
40624;BMP280;26325;48.594;11.650;2023-05-10T14:16:51;96201.75;;;17.11
40624;BMP280;26325;48.594;11.650;2023-05-10T14:19:16;96207.38;;;17.17
40624;BMP280;26325;48.594;11.650;2023-05-10T14:21:42;96207.38;;;17.17
40624;BMP280;26325;48.594;11.650;2023-05-10T14:24:11;96212.75;;;17.08
40624;BMP280;26325;48.594;11.650;2023-05-10T14:26:47;96205.03;;;17.29
40624;BMP280;26325;48.594;11.650;2023-05-10T14:29:13;96209.69;;;17.32
40624;BMP280;26325;48.594;11.650;2023-05-10T14:31:40;96210.47;;;17.46
40624;BMP280;26325;48.594;11.650;2023-05-10T14:34:05;96213.16;;;17.41
40624;BMP280;26325;48.594;11.650;2023-05-10T14:36:31;96209.13;;;17.35
40624;BMP280;26325;48.594;11.650;2023-05-10T14:38:57;96211.44;;;16.92
40624;BMP280;26325;48.594;11.650;2023-05-10T14:41:23;96220.19;;;17.01
40624;BMP280;26325;48.594;11.650;2023-05-10T14:43:48;96218.44;;;16.78
40624;BMP280;26325;48.594;11.650;2023-05-10T14:46:14;96220.16;;;16.70
40624;BMP280;26325;48.594;11.650;2023-05-10T14:48:39;96217.31;;;16.53
40624;BMP280;26325;48.594;11.650;2023-05-10T14:51:05;96220.22;;;16.34